Grand Coulee, Canada
Current Conditions -  °F | °C
As of 7:00 AM on Friday 28 Nov 2014 (Local Time) from CYQR Reporting Station
Light Snow Light Snow  
Wind Chill: -5°   Ceiling: 3200
Heat Index: 12°   Visibility: 2mi
Dew Point:   Wind: 17mph
Humidity: 85%   Direction: 120°ESE
Pressure: 29.72"   Gusts: 23mph
Location:  50.43°N, 104.82°W
Report Text: CYQR 281300Z 12015G20KT 2SM -SN DRSN OVC032 M11/M13 A2972 RMK SC8 SLP106
Loading
Personal Weather Stations






























Interactive Weather Map New forecast layout! Learn more

10-Day Weather Forecast

Advertisements
Track Severe Weather on mobile